sensor_id;sensor_type;location;lat;lon;timestamp;temperature;humidity
54202;DHT22;40108;53.152;5.844;2022-07-29T00:02:18;15.10;77.80
54202;DHT22;40108;53.152;5.844;2022-07-29T00:04:44;15.00;77.90
54202;DHT22;40108;53.152;5.844;2022-07-29T00:07:13;15.10;77.80
54202;DHT22;40108;53.152;5.844;2022-07-29T00:09:39;15.10;78.00
54202;DHT22;40108;53.152;5.844;2022-07-29T00:12:05;15.00;77.90
54202;DHT22;40108;53.152;5.844;2022-07-29T00:14:30;15.00;78.00
54202;DHT22;40108;53.152;5.844;2022-07-29T00:16:56;15.00;77.90
54202;DHT22;40108;53.152;5.844;2022-07-29T00:19:25;15.00;78.20
54202;DHT22;40108;53.152;5.844;2022-07-29T00:21:54;15.00;78.10
54202;DHT22;40108;53.152;5.844;2022-07-29T00:24:20;15.00;78.30
54202;DHT22;40108;53.152;5.844;2022-07-29T00:26:46;15.10;78.30
54202;DHT22;40108;53.152;5.844;2022-07-29T00:29:11;15.00;78.20
54202;DHT22;40108;53.152;5.844;2022-07-29T00:31:37;15.00;78.10
54202;DHT22;40108;53.152;5.844;2022-07-29T00:34:03;15.00;78.50
54202;DHT22;40108;53.152;5.844;2022-07-29T00:36:29;15.00;78.70
54202;DHT22;40108;53.152;5.844;2022-07-29T00:38:57;15.00;78.50
54202;DHT22;40108;53.152;5.844;2022-07-29T00:41:23;15.10;78.60
54202;DHT22;40108;53.152;5.844;2022-07-29T00:43:49;15.10;78.60
54202;DHT22;40108;53.152;5.844;2022-07-29T00:46:15;15.10;78.60
54202;DHT22;40108;53.152;5.844;2022-07-29T00:48:41;15.10;78.70
54202;DHT22;40108;53.152;5.844;2022-07-29T00:51:07;15.10;78.90
54202;DHT22;40108;53.152;5.844;2022-07-29T00:53:34;15.10;78.80
54202;DHT22;40108;53.152;5.844;2022-07-29T00:56:01;15.10;78.80
54202;DHT22;40108;53.152;5.844;2022-07-29T00:58:27;15.10;79.00
54202;DHT22;40108;53.152;5.844;2022-07-29T01:00:53;15.10;79.10
54202;DHT22;40108;53.152;5.844;2022-07-29T01:03:19;15.10;79.10
54202;DHT22;40108;53.152;5.844;2022-07-29T01:05:45;15.10;79.10
54202;DHT22;40108;53.152;5.844;2022-07-29T01:08:12;15.10;79.20
54202;DHT22;40108;53.152;5.844;2022-07-29T01:10:40;15.10;79.30
54202;DHT22;40108;53.152;5.844;2022-07-29T01:13:07;15.10;79.40
54202;DHT22;40108;53.152;5.844;2022-07-29T01:15:41;15.10;79.40
54202;DHT22;40108;53.152;5.844;2022-07-29T01:23:34;15.10;79.70
54202;DHT22;40108;53.152;5.844;2022-07-29T01:29:17;15.10;79.90
54202;DHT22;40108;53.152;5.844;2022-07-29T01:31:58;15.10;80.20
54202;DHT22;40108;53.152;5.844;2022-07-29T01:34:41;15.10;80.10
54202;DHT22;40108;53.152;5.844;2022-07-29T01:37:24;15.10;80.50
54202;DHT22;40108;53.152;5.844;2022-07-29T01:39:54;15.10;80.50
54202;DHT22;40108;53.152;5.844;2022-07-29T01:45:14;15.10;80.90
54202;DHT22;40108;53.152;5.844;2022-07-29T01:47:50;15.10;80.80
54202;DHT22;40108;53.152;5.844;2022-07-29T01:50:18;15.10;80.90
54202;DHT22;40108;53.152;5.844;2022-07-29T01:53:07;15.10;81.00
54202;DHT22;40108;53.152;5.844;2022-07-29T01:55:39;15.20;81.10
54202;DHT22;40108;53.152;5.844;2022-07-29T01:58:07;15.20;81.20
54202;DHT22;40108;53.152;5.844;2022-07-29T02:00:34;15.20;81.10
54202;DHT22;40108;53.152;5.844;2022-07-29T02:03:05;15.20;81.10
54202;DHT22;40108;53.152;5.844;2022-07-29T02:05:35;15.20;81.00
54202;DHT22;40108;53.152;5.844;2022-07-29T02:08:04;15.20;81.00
54202;DHT22;40108;53.152;5.844;2022-07-29T02:10:33;15.20;81.00
54202;DHT22;40108;53.152;5.844;2022-07-29T02:13:00;15.30;80.70
54202;DHT22;40108;53.152;5.844;2022-07-29T02:15:30;15.30;80.60
54202;DHT22;40108;53.152;5.844;2022-07-29T02:18:06;15.30;80.50
54202;DHT22;40108;53.152;5.844;2022-07-29T02:20:33;15.30;80.40
54202;DHT22;40108;53.152;5.844;2022-07-29T02:23:00;15.30;80.20
54202;DHT22;40108;53.152;5.844;2022-07-29T02:25:28;15.30;80.20
54202;DHT22;40108;53.152;5.844;2022-07-29T02:27:55;15.30;80.20
54202;DHT22;40108;53.152;5.844;2022-07-29T02:30:22;15.30;80.10
54202;DHT22;40108;53.152;5.844;2022-07-29T02:32:50;15.30;80.10
54202;DHT22;40108;53.152;5.844;2022-07-29T02:35:23;15.30;80.10
54202;DHT22;40108;53.152;5.844;2022-07-29T02:37:51;15.30;80.00
54202;DHT22;40108;53.152;5.844;2022-07-29T02:40:38;15.30;80.00
54202;DHT22;40108;53.152;5.844;2022-07-29T02:43:08;15.30;79.90
54202;DHT22;40108;53.152;5.844;2022-07-29T02:45:34;15.30;79.80
54202;DHT22;40108;53.152;5.844;2022-07-29T02:48:09;15.30;79.80
54202;DHT22;40108;53.152;5.844;2022-07-29T02:50:45;15.30;79.70
54202;DHT22;40108;53.152;5.844;2022-07-29T02:53:17;15.30;79.70
54202;DHT22;40108;53.152;5.844;2022-07-29T02:55:55;15.30;79.60
54202;DHT22;40108;53.152;5.844;2022-07-29T02:58:28;15.30;79.70
54202;DHT22;40108;53.152;5.844;2022-07-29T03:01:10;15.30;79.70
54202;DHT22;40108;53.152;5.844;2022-07-29T03:03:38;15.30;79.80
54202;DHT22;40108;53.152;5.844;2022-07-29T03:06:07;15.20;79.70
54202;DHT22;40108;53.152;5.844;2022-07-29T03:08:34;15.20;79.90
54202;DHT22;40108;53.152;5.844;2022-07-29T03:11:08;15.20;79.80
54202;DHT22;40108;53.152;5.844;2022-07-29T03:13:37;15.20;79.70
54202;DHT22;40108;53.152;5.844;2022-07-29T03:16:04;15.20;79.80
54202;DHT22;40108;53.152;5.844;2022-07-29T03:18:31;15.20;80.00
54202;DHT22;40108;53.152;5.844;2022-07-29T03:20:57;15.20;79.90
54202;DHT22;40108;53.152;5.844;2022-07-29T03:23:23;15.20;79.90
54202;DHT22;40108;53.152;5.844;2022-07-29T03:25:53;15.10;80.00
54202;DHT22;40108;53.152;5.844;2022-07-29T03:28:19;15.10;79.90
54202;DHT22;40108;53.152;5.844;2022-07-29T03:30:51;15.10;79.90
54202;DHT22;40108;53.152;5.844;2022-07-29T03:33:17;15.10;79.90
54202;DHT22;40108;53.152;5.844;2022-07-29T03:35:46;15.10;80.00
54202;DHT22;40108;53.152;5.844;2022-07-29T03:38:12;15.10;79.90
54202;DHT22;40108;53.152;5.844;2022-07-29T03:40:44;15.10;79.90
54202;DHT22;40108;53.152;5.844;2022-07-29T03:43:13;15.10;80.20
54202;DHT22;40108;53.152;5.844;2022-07-29T03:45:44;15.10;80.00
54202;DHT22;40108;53.152;5.844;2022-07-29T03:48:16;15.10;80.00
54202;DHT22;40108;53.152;5.844;2022-07-29T03:50:42;15.10;80.00
54202;DHT22;40108;53.152;5.844;2022-07-29T03:53:11;15.10;80.00
54202;DHT22;40108;53.152;5.844;2022-07-29T03:55:55;15.10;79.90
54202;DHT22;40108;53.152;5.844;2022-07-29T03:58:25;15.10;80.00
54202;DHT22;40108;53.152;5.844;2022-07-29T04:00:55;15.10;79.80
54202;DHT22;40108;53.152;5.844;2022-07-29T04:03:22;15.10;79.80
54202;DHT22;40108;53.152;5.844;2022-07-29T04:06:05;15.10;79.90
54202;DHT22;40108;53.152;5.844;2022-07-29T04:08:34;15.10;79.90
54202;DHT22;40108;53.152;5.844;2022-07-29T04:11:01;15.10;79.90
54202;DHT22;40108;53.152;5.844;2022-07-29T04:13:27;15.10;79.90
54202;DHT22;40108;53.152;5.844;2022-07-29T04:15:53;15.00;79.80
54202;DHT22;40108;53.152;5.844;2022-07-29T04:18:19;15.10;80.00
54202;DHT22;40108;53.152;5.844;2022-07-29T04:20:45;15.00;79.80
54202;DHT22;40108;53.152;5.844;2022-07-29T04:23:10;15.00;79.90
54202;DHT22;40108;53.152;5.844;2022-07-29T04:25:40;15.00;80.10
54202;DHT22;40108;53.152;5.844;2022-07-29T04:28:07;15.00;80.20
54202;DHT22;40108;53.152;5.844;2022-07-29T04:30:34;15.00;80.20
54202;DHT22;40108;53.152;5.844;2022-07-29T04:33:01;15.00;80.20
54202;DHT22;40108;53.152;5.844;2022-07-29T04:35:33;15.00;80.40
54202;DHT22;40108;53.152;5.844;2022-07-29T04:37:59;15.00;80.30
54202;DHT22;40108;53.152;5.844;2022-07-29T04:40:25;15.00;80.30
54202;DHT22;40108;53.152;5.844;2022-07-29T04:42:50;15.00;80.30
54202;DHT22;40108;53.152;5.844;2022-07-29T04:45:17;15.00;80.40
54202;DHT22;40108;53.152;5.844;2022-07-29T04:47:42;15.00;80.40
54202;DHT22;40108;53.152;5.844;2022-07-29T04:50:09;15.00;80.40
54202;DHT22;40108;53.152;5.844;2022-07-29T04:52:35;15.00;80.30
54202;DHT22;40108;53.152;5.844;2022-07-29T04:55:02;15.10;80.40
54202;DHT22;40108;53.152;5.844;2022-07-29T04:57:28;15.00;80.30
54202;DHT22;40108;53.152;5.844;2022-07-29T04:59:54;15.10;80.40
54202;DHT22;40108;53.152;5.844;2022-07-29T05:02:20;15.10;80.30
54202;DHT22;40108;53.152;5.844;2022-07-29T05:04:46;15.10;80.30
54202;DHT22;40108;53.152;5.844;2022-07-29T05:07:11;15.10;80.40
54202;DHT22;40108;53.152;5.844;2022-07-29T05:09:37;15.10;80.30
54202;DHT22;40108;53.152;5.844;2022-07-29T05:12:03;15.10;80.30
54202;DHT22;40108;53.152;5.844;2022-07-29T05:14:29;15.10;80.30
54202;DHT22;40108;53.152;5.844;2022-07-29T05:16:55;15.10;80.00
54202;DHT22;40108;53.152;5.844;2022-07-29T05:19:22;15.10;80.10
54202;DHT22;40108;53.152;5.844;2022-07-29T05:21:48;15.20;80.10
54202;DHT22;40108;53.152;5.844;2022-07-29T05:24:14;15.20;80.00
54202;DHT22;40108;53.152;5.844;2022-07-29T05:26:42;15.20;80.10
54202;DHT22;40108;53.152;5.844;2022-07-29T05:29:08;15.20;79.90
54202;DHT22;40108;53.152;5.844;2022-07-29T05:31:34;15.30;79.90
54202;DHT22;40108;53.152;5.844;2022-07-29T05:34:03;15.30;79.80
54202;DHT22;40108;53.152;5.844;2022-07-29T05:36:29;15.30;79.80
54202;DHT22;40108;53.152;5.844;2022-07-29T05:38:55;15.30;79.60
54202;DHT22;40108;53.152;5.844;2022-07-29T05:41:26;15.40;79.40
54202;DHT22;40108;53.152;5.844;2022-07-29T05:43:58;15.50;79.40
54202;DHT22;40108;53.152;5.844;2022-07-29T05:46:27;15.50;79.40
54202;DHT22;40108;53.152;5.844;2022-07-29T05:48:53;15.60;79.30
54202;DHT22;40108;53.152;5.844;2022-07-29T05:51:19;15.60;79.30
54202;DHT22;40108;53.152;5.844;2022-07-29T05:53:45;15.70;78.90
54202;DHT22;40108;53.152;5.844;2022-07-29T05:56:11;15.90;78.60
54202;DHT22;40108;53.152;5.844;2022-07-29T05:58:37;16.00;78.20
54202;DHT22;40108;53.152;5.844;2022-07-29T06:01:03;16.00;78.20
54202;DHT22;40108;53.152;5.844;2022-07-29T06:03:31;16.10;78.10
54202;DHT22;40108;53.152;5.844;2022-07-29T06:05:57;16.20;77.60
54202;DHT22;40108;53.152;5.844;2022-07-29T06:08:23;16.40;77.60
54202;DHT22;40108;53.152;5.844;2022-07-29T06:10:48;16.50;76.90
54202;DHT22;40108;53.152;5.844;2022-07-29T06:13:14;16.60;76.50
54202;DHT22;40108;53.152;5.844;2022-07-29T06:15:43;16.60;75.70
54202;DHT22;40108;53.152;5.844;2022-07-29T06:18:09;16.60;76.00
54202;DHT22;40108;53.152;5.844;2022-07-29T06:20:35;16.70;75.90
54202;DHT22;40108;53.152;5.844;2022-07-29T06:23:01;16.70;76.10
54202;DHT22;40108;53.152;5.844;2022-07-29T06:25:30;16.70;76.30
54202;DHT22;40108;53.152;5.844;2022-07-29T06:27:57;16.80;76.10
54202;DHT22;40108;53.152;5.844;2022-07-29T06:30:23;16.90;76.10
54202;DHT22;40108;53.152;5.844;2022-07-29T06:32:48;16.90;75.60
54202;DHT22;40108;53.152;5.844;2022-07-29T06:35:14;16.90;75.90
54202;DHT22;40108;53.152;5.844;2022-07-29T06:37:40;17.00;75.20
54202;DHT22;40108;53.152;5.844;2022-07-29T06:40:06;17.10;75.20
54202;DHT22;40108;53.152;5.844;2022-07-29T06:42:50;17.10;75.90
54202;DHT22;40108;53.152;5.844;2022-07-29T06:45:16;17.30;74.70
54202;DHT22;40108;53.152;5.844;2022-07-29T06:47:45;17.40;73.90
54202;DHT22;40108;53.152;5.844;2022-07-29T06:50:11;17.50;74.20
54202;DHT22;40108;53.152;5.844;2022-07-29T06:52:40;17.60;73.30
54202;DHT22;40108;53.152;5.844;2022-07-29T06:55:07;17.70;73.30
54202;DHT22;40108;53.152;5.844;2022-07-29T06:57:36;17.90;73.00
54202;DHT22;40108;53.152;5.844;2022-07-29T07:00:03;18.10;72.50
54202;DHT22;40108;53.152;5.844;2022-07-29T07:02:31;18.40;70.10
54202;DHT22;40108;53.152;5.844;2022-07-29T07:04:57;18.60;70.30
54202;DHT22;40108;53.152;5.844;2022-07-29T07:07:26;18.60;68.50
54202;DHT22;40108;53.152;5.844;2022-07-29T07:09:52;18.60;69.10
54202;DHT22;40108;53.152;5.844;2022-07-29T07:12:18;18.60;69.40
54202;DHT22;40108;53.152;5.844;2022-07-29T07:14:44;18.50;69.10
54202;DHT22;40108;53.152;5.844;2022-07-29T07:17:10;18.60;70.00
54202;DHT22;40108;53.152;5.844;2022-07-29T07:19:35;18.60;69.00
54202;DHT22;40108;53.152;5.844;2022-07-29T07:22:01;18.40;68.60
54202;DHT22;40108;53.152;5.844;2022-07-29T07:24:30;18.40;67.90
54202;DHT22;40108;53.152;5.844;2022-07-29T07:26:56;18.30;69.00
54202;DHT22;40108;53.152;5.844;2022-07-29T07:29:30;18.20;68.40
54202;DHT22;40108;53.152;5.844;2022-07-29T07:32:00;18.20;69.10
54202;DHT22;40108;53.152;5.844;2022-07-29T07:34:33;18.20;69.80
54202;DHT22;40108;53.152;5.844;2022-07-29T07:36:59;18.20;70.10
54202;DHT22;40108;53.152;5.844;2022-07-29T07:39:25;18.20;70.30
54202;DHT22;40108;53.152;5.844;2022-07-29T07:41:52;18.30;70.40
54202;DHT22;40108;53.152;5.844;2022-07-29T07:44:17;18.30;68.60
54202;DHT22;40108;53.152;5.844;2022-07-29T07:46:43;18.30;68.60
54202;DHT22;40108;53.152;5.844;2022-07-29T07:49:10;18.30;68.80
54202;DHT22;40108;53.152;5.844;2022-07-29T07:51:36;18.30;69.10
54202;DHT22;40108;53.152;5.844;2022-07-29T07:54:02;18.30;68.70
54202;DHT22;40108;53.152;5.844;2022-07-29T07:56:28;18.40;68.50
54202;DHT22;40108;53.152;5.844;2022-07-29T07:58:54;18.40;68.50
54202;DHT22;40108;53.152;5.844;2022-07-29T08:01:20;18.40;68.60
54202;DHT22;40108;53.152;5.844;2022-07-29T08:03:49;18.40;68.80
54202;DHT22;40108;53.152;5.844;2022-07-29T08:06:15;18.30;68.40
54202;DHT22;40108;53.152;5.844;2022-07-29T08:08:41;18.50;68.80
54202;DHT22;40108;53.152;5.844;2022-07-29T08:11:07;18.60;69.20
54202;DHT22;40108;53.152;5.844;2022-07-29T08:13:33;18.80;67.20
54202;DHT22;40108;53.152;5.844;2022-07-29T08:16:05;19.00;66.70
54202;DHT22;40108;53.152;5.844;2022-07-29T08:19:08;19.10;66.00
54202;DHT22;40108;53.152;5.844;2022-07-29T08:21:35;19.30;65.70
54202;DHT22;40108;53.152;5.844;2022-07-29T08:24:08;19.50;64.80
54202;DHT22;40108;53.152;5.844;2022-07-29T08:26:55;19.50;65.30
54202;DHT22;40108;53.152;5.844;2022-07-29T08:29:21;19.50;63.60
54202;DHT22;40108;53.152;5.844;2022-07-29T08:31:50;19.60;64.90
54202;DHT22;40108;53.152;5.844;2022-07-29T08:34:16;19.60;64.40
54202;DHT22;40108;53.152;5.844;2022-07-29T08:36:42;19.40;64.30
54202;DHT22;40108;53.152;5.844;2022-07-29T08:39:07;19.40;65.30
54202;DHT22;40108;53.152;5.844;2022-07-29T08:41:33;19.30;65.30
54202;DHT22;40108;53.152;5.844;2022-07-29T08:44:00;19.20;65.30
54202;DHT22;40108;53.152;5.844;2022-07-29T08:46:26;19.20;65.60
54202;DHT22;40108;53.152;5.844;2022-07-29T08:48:52;19.10;65.80
54202;DHT22;40108;53.152;5.844;2022-07-29T08:51:21;19.10;66.00
54202;DHT22;40108;53.152;5.844;2022-07-29T08:53:59;19.10;66.60
54202;DHT22;40108;53.152;5.844;2022-07-29T08:56:32;19.10;67.20
54202;DHT22;40108;53.152;5.844;2022-07-29T08:58:59;19.10;67.10
54202;DHT22;40108;53.152;5.844;2022-07-29T09:01:29;19.00;67.20
54202;DHT22;40108;53.152;5.844;2022-07-29T09:03:59;18.90;66.70
54202;DHT22;40108;53.152;5.844;2022-07-29T09:06:40;18.80;66.70
54202;DHT22;40108;53.152;5.844;2022-07-29T09:09:08;18.80;67.80
54202;DHT22;40108;53.152;5.844;2022-07-29T09:11:34;18.80;68.10
54202;DHT22;40108;53.152;5.844;2022-07-29T09:14:00;18.80;67.80
54202;DHT22;40108;53.152;5.844;2022-07-29T09:19:24;18.80;67.30
54202;DHT22;40108;53.152;5.844;2022-07-29T09:21:50;18.80;67.60
54202;DHT22;40108;53.152;5.844;2022-07-29T09:24:46;18.80;67.90
54202;DHT22;40108;53.152;5.844;2022-07-29T09:27:23;18.90;67.50
54202;DHT22;40108;53.152;5.844;2022-07-29T09:30:05;19.00;66.90
54202;DHT22;40108;53.152;5.844;2022-07-29T09:32:33;19.00;67.70
54202;DHT22;40108;53.152;5.844;2022-07-29T09:35:23;19.00;66.90
54202;DHT22;40108;53.152;5.844;2022-07-29T09:37:50;19.00;67.40
54202;DHT22;40108;53.152;5.844;2022-07-29T09:40:28;19.10;67.40
54202;DHT22;40108;53.152;5.844;2022-07-29T09:42:57;19.10;67.80
54202;DHT22;40108;53.152;5.844;2022-07-29T09:45:33;19.10;67.70
54202;DHT22;40108;53.152;5.844;2022-07-29T09:48:16;19.10;67.70
54202;DHT22;40108;53.152;5.844;2022-07-29T09:50:46;19.10;67.40
54202;DHT22;40108;53.152;5.844;2022-07-29T09:53:35;19.20;67.50
54202;DHT22;40108;53.152;5.844;2022-07-29T09:56:05;19.20;67.50
54202;DHT22;40108;53.152;5.844;2022-07-29T09:58:30;19.20;67.30
54202;DHT22;40108;53.152;5.844;2022-07-29T10:01:33;19.20;67.40
54202;DHT22;40108;53.152;5.844;2022-07-29T10:07:15;19.20;69.30
54202;DHT22;40108;53.152;5.844;2022-07-29T10:13:25;19.30;70.60
54202;DHT22;40108;53.152;5.844;2022-07-29T10:15:51;19.10;70.90
54202;DHT22;40108;53.152;5.844;2022-07-29T10:18:46;19.10;71.00
54202;DHT22;40108;53.152;5.844;2022-07-29T10:21:12;19.00;71.50
54202;DHT22;40108;53.152;5.844;2022-07-29T10:27:02;19.10;71.10
54202;DHT22;40108;53.152;5.844;2022-07-29T10:29:29;19.10;69.90
54202;DHT22;40108;53.152;5.844;2022-07-29T10:41:43;19.60;69.90
54202;DHT22;40108;53.152;5.844;2022-07-29T10:44:20;19.60;70.00
54202;DHT22;40108;53.152;5.844;2022-07-29T10:46:50;19.70;68.90
54202;DHT22;40108;53.152;5.844;2022-07-29T10:49:17;19.70;69.00
54202;DHT22;40108;53.152;5.844;2022-07-29T10:51:52;19.80;68.90
54202;DHT22;40108;53.152;5.844;2022-07-29T10:54:19;19.80;68.80
54202;DHT22;40108;53.152;5.844;2022-07-29T10:57:21;19.80;68.10
54202;DHT22;40108;53.152;5.844;2022-07-29T10:59:48;19.80;68.30
54202;DHT22;40108;53.152;5.844;2022-07-29T11:07:25;19.80;66.60
54202;DHT22;40108;53.152;5.844;2022-07-29T11:15:11;19.70;66.60
54202;DHT22;40108;53.152;5.844;2022-07-29T11:28:29;19.60;65.70
54202;DHT22;40108;53.152;5.844;2022-07-29T11:30:55;19.60;66.80
54202;DHT22;40108;53.152;5.844;2022-07-29T11:51:32;19.70;67.10
54202;DHT22;40108;53.152;5.844;2022-07-29T12:29:33;20.60;65.00
54202;DHT22;40108;53.152;5.844;2022-07-29T12:32:02;20.80;64.70
54202;DHT22;40108;53.152;5.844;2022-07-29T12:53:13;21.80;60.20
54202;DHT22;40108;53.152;5.844;2022-07-29T12:55:45;21.80;59.30
54202;DHT22;40108;53.152;5.844;2022-07-29T12:58:49;22.00;61.10
54202;DHT22;40108;53.152;5.844;2022-07-29T13:01:18;22.10;60.00
54202;DHT22;40108;53.152;5.844;2022-07-29T13:07:29;22.20;60.30
54202;DHT22;40108;53.152;5.844;2022-07-29T13:10:14;22.30;60.40
54202;DHT22;40108;53.152;5.844;2022-07-29T13:13:06;22.30;59.80
54202;DHT22;40108;53.152;5.844;2022-07-29T13:15:45;22.40;60.30
54202;DHT22;40108;53.152;5.844;2022-07-29T13:25:13;22.10;58.60
54202;DHT22;40108;53.152;5.844;2022-07-29T13:27:39;22.10;60.80
54202;DHT22;40108;53.152;5.844;2022-07-29T13:30:15;22.10;58.70
54202;DHT22;40108;53.152;5.844;2022-07-29T13:32:41;22.00;58.70
54202;DHT22;40108;53.152;5.844;2022-07-29T13:35:10;22.10;59.90
54202;DHT22;40108;53.152;5.844;2022-07-29T13:37:41;22.10;59.00
54202;DHT22;40108;53.152;5.844;2022-07-29T13:40:10;22.20;59.70
54202;DHT22;40108;53.152;5.844;2022-07-29T13:42:36;22.10;58.90
54202;DHT22;40108;53.152;5.844;2022-07-29T13:45:08;22.10;59.50
54202;DHT22;40108;53.152;5.844;2022-07-29T13:47:37;22.10;58.80
54202;DHT22;40108;53.152;5.844;2022-07-29T13:50:10;22.10;59.70
54202;DHT22;40108;53.152;5.844;2022-07-29T13:52:39;22.10;59.80
54202;DHT22;40108;53.152;5.844;2022-07-29T13:55:05;22.30;60.30
54202;DHT22;40108;53.152;5.844;2022-07-29T13:57:34;22.40;59.50
54202;DHT22;40108;53.152;5.844;2022-07-29T14:02:49;22.40;59.20
54202;DHT22;40108;53.152;5.844;2022-07-29T14:05:15;22.40;60.10
54202;DHT22;40108;53.152;5.844;2022-07-29T14:07:43;22.40;58.60
54202;DHT22;40108;53.152;5.844;2022-07-29T14:10:09;22.30;59.60
54202;DHT22;40108;53.152;5.844;2022-07-29T14:12:35;22.30;60.00
54202;DHT22;40108;53.152;5.844;2022-07-29T14:18:09;22.40;60.30
54202;DHT22;40108;53.152;5.844;2022-07-29T14:21:14;22.50;59.80
54202;DHT22;40108;53.152;5.844;2022-07-29T14:23:40;22.60;59.80
54202;DHT22;40108;53.152;5.844;2022-07-29T14:26:08;22.60;60.40
54202;DHT22;40108;53.152;5.844;2022-07-29T14:28:34;22.60;60.40
54202;DHT22;40108;53.152;5.844;2022-07-29T14:31:02;22.70;59.30
54202;DHT22;40108;53.152;5.844;2022-07-29T14:39:51;22.80;58.30
54202;DHT22;40108;53.152;5.844;2022-07-29T14:42:21;22.80;58.20
54202;DHT22;40108;53.152;5.844;2022-07-29T14:44:50;22.80;57.90
54202;DHT22;40108;53.152;5.844;2022-07-29T14:47:15;22.80;57.80
54202;DHT22;40108;53.152;5.844;2022-07-29T14:49:44;22.80;57.50
54202;DHT22;40108;53.152;5.844;2022-07-29T14:52:12;22.70;58.30
54202;DHT22;40108;53.152;5.844;2022-07-29T14:54:48;22.60;57.00
54202;DHT22;40108;53.152;5.844;2022-07-29T14:57:19;22.60;56.60
54202;DHT22;40108;53.152;5.844;2022-07-29T14:59:48;22.60;57.20
54202;DHT22;40108;53.152;5.844;2022-07-29T15:06:14;22.70;58.40
54202;DHT22;40108;53.152;5.844;2022-07-29T15:12:20;22.70;58.40
54202;DHT22;40108;53.152;5.844;2022-07-29T15:18:28;22.70;56.90
54202;DHT22;40108;53.152;5.844;2022-07-29T15:20:57;22.60;57.20
54202;DHT22;40108;53.152;5.844;2022-07-29T15:27:03;22.60;58.00
54202;DHT22;40108;53.152;5.844;2022-07-29T15:33:22;22.60;57.90
54202;DHT22;40108;53.152;5.844;2022-07-29T15:35:48;22.60;57.40
54202;DHT22;40108;53.152;5.844;2022-07-29T15:38:13;22.60;57.30
54202;DHT22;40108;53.152;5.844;2022-07-29T15:40:39;22.50;58.10
54202;DHT22;40108;53.152;5.844;2022-07-29T15:43:06;22.60;58.80
54202;DHT22;40108;53.152;5.844;2022-07-29T15:45:37;22.50;58.80
54202;DHT22;40108;53.152;5.844;2022-07-29T15:48:05;22.50;58.10
54202;DHT22;40108;53.152;5.844;2022-07-29T15:50:31;22.50;58.80
54202;DHT22;40108;53.152;5.844;2022-07-29T15:53:00;22.50;59.20
54202;DHT22;40108;53.152;5.844;2022-07-29T15:55:33;22.50;59.60
54202;DHT22;40108;53.152;5.844;2022-07-29T15:57:58;22.60;59.40
54202;DHT22;40108;53.152;5.844;2022-07-29T16:00:24;22.60;59.20
54202;DHT22;40108;53.152;5.844;2022-07-29T16:02:50;22.70;59.10
54202;DHT22;40108;53.152;5.844;2022-07-29T16:05:16;22.70;58.90
54202;DHT22;40108;53.152;5.844;2022-07-29T16:07:42;22.80;59.10
54202;DHT22;40108;53.152;5.844;2022-07-29T16:10:08;22.80;58.40
54202;DHT22;40108;53.152;5.844;2022-07-29T16:12:33;22.80;57.20
54202;DHT22;40108;53.152;5.844;2022-07-29T16:14:59;22.80;58.10
54202;DHT22;40108;53.152;5.844;2022-07-29T16:17:25;22.90;58.30
54202;DHT22;40108;53.152;5.844;2022-07-29T16:19:52;22.90;58.50
54202;DHT22;40108;53.152;5.844;2022-07-29T16:22:18;23.00;58.20
54202;DHT22;40108;53.152;5.844;2022-07-29T16:24:44;22.90;56.40
54202;DHT22;40108;53.152;5.844;2022-07-29T16:27:10;22.90;56.50
54202;DHT22;40108;53.152;5.844;2022-07-29T16:29:35;22.90;57.50
54202;DHT22;40108;53.152;5.844;2022-07-29T16:32:01;22.80;57.60
54202;DHT22;40108;53.152;5.844;2022-07-29T16:34:27;22.80;57.50
54202;DHT22;40108;53.152;5.844;2022-07-29T16:44:27;22.80;57.30
54202;DHT22;40108;53.152;5.844;2022-07-29T16:50:37;22.80;58.50
54202;DHT22;40108;53.152;5.844;2022-07-29T16:56:50;22.80;58.60
54202;DHT22;40108;53.152;5.844;2022-07-29T16:59:16;22.80;58.90
54202;DHT22;40108;53.152;5.844;2022-07-29T17:01:41;22.80;58.30
54202;DHT22;40108;53.152;5.844;2022-07-29T17:04:07;22.80;58.50
54202;DHT22;40108;53.152;5.844;2022-07-29T17:06:35;22.80;58.30
54202;DHT22;40108;53.152;5.844;2022-07-29T17:09:02;22.80;58.70
54202;DHT22;40108;53.152;5.844;2022-07-29T17:11:29;22.80;57.60
54202;DHT22;40108;53.152;5.844;2022-07-29T17:13:55;22.80;58.60
54202;DHT22;40108;53.152;5.844;2022-07-29T17:16:24;22.90;58.80
54202;DHT22;40108;53.152;5.844;2022-07-29T17:18:51;22.90;58.40
54202;DHT22;40108;53.152;5.844;2022-07-29T17:21:18;22.90;58.10
54202;DHT22;40108;53.152;5.844;2022-07-29T17:23:44;22.90;58.50
54202;DHT22;40108;53.152;5.844;2022-07-29T17:26:10;23.00;59.20
54202;DHT22;40108;53.152;5.844;2022-07-29T17:28:38;22.90;60.20
54202;DHT22;40108;53.152;5.844;2022-07-29T17:31:04;23.00;60.30
54202;DHT22;40108;53.152;5.844;2022-07-29T17:33:33;23.00;60.40
54202;DHT22;40108;53.152;5.844;2022-07-29T17:35:59;23.00;61.30
54202;DHT22;40108;53.152;5.844;2022-07-29T17:38:43;23.00;63.00
54202;DHT22;40108;53.152;5.844;2022-07-29T17:41:08;23.00;65.60
54202;DHT22;40108;53.152;5.844;2022-07-29T17:43:34;23.00;68.20
54202;DHT22;40108;53.152;5.844;2022-07-29T17:46:00;23.00;69.10
54202;DHT22;40108;53.152;5.844;2022-07-29T17:48:28;23.00;69.40
54202;DHT22;40108;53.152;5.844;2022-07-29T17:50:56;23.00;69.50
54202;DHT22;40108;53.152;5.844;2022-07-29T17:53:27;23.00;70.00
54202;DHT22;40108;53.152;5.844;2022-07-29T17:55:55;23.00;70.00
54202;DHT22;40108;53.152;5.844;2022-07-29T17:58:27;22.90;70.10
54202;DHT22;40108;53.152;5.844;2022-07-29T18:00:55;22.90;70.40
54202;DHT22;40108;53.152;5.844;2022-07-29T18:03:21;22.90;70.70
54202;DHT22;40108;53.152;5.844;2022-07-29T18:05:50;22.90;70.90
54202;DHT22;40108;53.152;5.844;2022-07-29T18:08:17;22.80;71.40
54202;DHT22;40108;53.152;5.844;2022-07-29T18:10:44;22.80;71.50
54202;DHT22;40108;53.152;5.844;2022-07-29T18:13:10;22.70;71.70
54202;DHT22;40108;53.152;5.844;2022-07-29T18:15:41;22.70;71.80
54202;DHT22;40108;53.152;5.844;2022-07-29T18:18:08;22.70;71.70
54202;DHT22;40108;53.152;5.844;2022-07-29T18:20:34;22.60;71.40
54202;DHT22;40108;53.152;5.844;2022-07-29T18:23:00;22.60;71.40
54202;DHT22;40108;53.152;5.844;2022-07-29T18:25:26;22.50;71.20
54202;DHT22;40108;53.152;5.844;2022-07-29T18:27:53;22.50;71.70
54202;DHT22;40108;53.152;5.844;2022-07-29T18:30:19;22.40;72.50
54202;DHT22;40108;53.152;5.844;2022-07-29T18:32:45;22.40;72.10
54202;DHT22;40108;53.152;5.844;2022-07-29T18:35:11;22.30;71.90
54202;DHT22;40108;53.152;5.844;2022-07-29T18:37:37;22.20;72.00
54202;DHT22;40108;53.152;5.844;2022-07-29T18:40:04;22.10;72.30
54202;DHT22;40108;53.152;5.844;2022-07-29T18:42:29;22.10;72.80
54202;DHT22;40108;53.152;5.844;2022-07-29T18:44:56;22.10;73.30
54202;DHT22;40108;53.152;5.844;2022-07-29T18:47:22;22.00;73.50